Latest Weather Observations for Swan Island

IDT60801

Issued at 4:01 pm EST Friday 27 May 2016 (issued every 30 minutes, with the page automatically refreshed every 10 minutes)

About weather observations | Map of weather stations | Latest weather observations for TAS | Other Formats
Station Details ID: 092123 Name: SWAN ISLAND Lat: -40.73 Lon: 148.12 Height: 15.0 m
Data from the previous 72 hours. | See also: Recent months at Swan Island
Date/Time
EST
Temp
°C
App
Temp
°C
Dew
Point
Rel
Hum
%
Delta-T
°C
Wind Press
QNH
hPa
Press
MSL
hPa
Rain
since 9 am
mm
Dir
 
Spd
km/h
Gust
km/h
Spd
kts
Gust
kts
27/04:00pm 9.6 7.6 8.7 94 0.4 WSW 9 13 5 7 1003.6 1003.6 8.8
27/03:30pm 9.6 7.6 8.7 94 0.4 WSW 9 15 5 8 1003.2 1003.2 8.8
27/03:00pm 9.5 7.5 8.6 94 0.4 WSW 9 15 5 8 1003.0 1003.0 8.8
27/02:30pm 9.7 7.7 8.8 94 0.4 WSW 9 15 5 8 1002.7 1002.7 8.6
27/02:00pm 9.5 7.5 8.6 94 0.4 SW 9 13 5 7 1002.7 1002.7 8.6
27/01:30pm 9.6 7.6 8.7 94 0.4 WSW 9 13 5 7 1002.5 1002.5 8.0
27/01:00pm 9.3 7.2 8.2 93 0.5 WSW 9 13 5 7 1002.6 1002.6 7.4
27/12:30pm 9.1 6.6 8.0 93 0.5 SW 11 17 6 9 1002.5 1002.5 6.6
27/12:00pm 9.1 6.9 8.0 93 0.5 SW 9 17 5 9 1002.7 1002.7 5.6
27/11:30am 9.0 6.4 7.9 93 0.5 SSW 11 20 6 11 1002.7 1002.7 4.6
27/11:00am 8.9 5.9 7.7 92 0.6 SSW 13 26 7 14 1002.7 1002.7 3.6
27/10:30am 8.7 4.9 7.5 92 0.6 SSW 17 24 9 13 1002.7 1002.7 2.6
27/10:00am 8.8 5.0 7.6 92 0.6 SSW 17 24 9 13 1002.6 1002.6 1.4
27/09:30am 8.6 5.1 7.2 91 0.7 SSW 15 24 8 13 1002.3 1002.3 0.6
27/09:00am 8.5 5.4 7.1 91 0.7 SSW 13 24 7 13 1002.1 1002.1 34.2
27/08:30am 8.6 5.9 7.2 91 0.7 SSW 11 19 6 10 1002.0 1002.0 33.8
27/08:00am 8.4 5.7 7.2 92 0.6 SW 11 22 6 12 1001.5 1001.5 33.2
27/07:30am 8.5 6.1 7.1 91 0.7 SW 9 17 5 9 1001.4 1001.4 32.8
27/07:00am 8.4 5.7 7.2 92 0.6 SW 11 19 6 10 1001.2 1001.2 32.2
27/06:30am 8.5 6.2 7.3 92 0.6 SW 9 17 5 9 1000.9 1000.9 32.0
27/06:00am 8.5 5.4 7.1 91 0.7 SW 13 22 7 12 1000.7 1000.7 31.2
27/05:30am 8.4 4.5 7.2 92 0.6 SW 17 22 9 12 1000.6 1000.6 31.0
27/05:00am 8.4 4.5 7.2 92 0.6 SW 17 24 9 13 1000.5 1000.5 30.6
27/04:30am 8.4 5.3 7.2 92 0.6 SW 13 22 7 12 1000.5 1000.5 30.4
27/04:00am 8.4 4.9 7.2 92 0.6 SW 15 22 8 12 1000.3 1000.3 29.2
27/03:30am 8.5 5.4 7.3 92 0.6 SW 13 20 7 11 1000.3 1000.3 28.4
27/03:00am 8.5 5.4 7.3 92 0.6 SSW 13 24 7 13 1000.4 1000.4 27.8
27/02:30am 8.5 5.0 7.1 91 0.7 SSW 15 24 8 13 1000.5 1000.5 27.2
27/02:00am 8.4 4.1 7.0 91 0.7 S 19 30 10 16 1000.3 1000.3 26.6
27/01:30am 8.6 4.3 7.2 91 0.7 S 19 30 10 16 1000.3 1000.3 26.0
27/01:00am 8.7 3.1 7.2 90 0.7 S 26 35 14 19 1000.2 1000.2 25.4
27/12:30am 9.1 3.2 7.5 90 0.8 S 28 39 15 21 1000.1 1000.1 25.2
27/12:00am 9.1 2.3 7.5 90 0.8 SSE 33 43 18 23 1000.1 1000.1 23.8
 
Date/Time
EST
Temp
°C
App
Temp
°C
Dew
Point
Rel
Hum
%
Delta-T
°C
Wind Press
QNH
hPa
Press
MSL
hPa
Rain
since 9 am
mm
Dir
 
Spd
km/h
Gust
km/h
Spd
kts
Gust
kts
26/11:43pm 9.1 2.8 7.5 90 0.8 S 30 50 16 27 1000.0 1000.0 23.2
26/11:30pm 9.3 4.2 7.7 90 0.8 S 24 37 13 20 1000.2 1000.2 22.8
26/11:00pm 9.2 4.8 7.6 90 0.8 S 20 32 11 17 1000.1 1000.1 22.4
26/10:30pm 9.2 4.1 7.6 90 0.8 S 24 35 13 19 1000.1 1000.1 22.0
26/10:00pm 9.2 4.5 7.6 90 0.8 S 22 39 12 21 1000.0 1000.0 21.4
26/09:30pm 9.0 4.3 7.6 91 0.7 S 22 33 12 18 1000.2 1000.2 21.0
26/09:00pm 9.0 4.6 7.6 91 0.7 S 20 32 11 17 1000.1 1000.1 20.4
26/08:30pm 9.1 4.4 7.9 92 0.6 S 22 37 12 20 999.8 999.8 20.0
26/08:00pm 9.3 5.1 8.2 93 0.5 S 20 32 11 17 999.8 999.8 19.8
26/07:30pm 9.7 5.3 8.8 94 0.4 S 22 33 12 18 999.6 999.6 19.6
26/07:00pm 9.9 5.9 9.1 95 0.4 S 20 30 11 16 999.6 999.6 19.2
26/06:30pm 10.1 7.9 9.3 95 0.4 S 11 20 6 11 999.4 999.4 18.6
26/06:00pm 10.4 7.9 9.6 95 0.4 S 13 22 7 12 999.0 999.0 18.4
26/05:30pm 10.6 6.8 9.8 95 0.4 S 20 30 11 16 998.7 998.7 18.0
26/05:00pm 10.9 6.0 10.1 95 0.4 SSE 26 37 14 20 998.5 998.5 17.2
26/04:30pm 11.0 6.2 10.4 96 0.3 SSE 26 35 14 19 998.2 998.2 16.4
26/04:00pm 11.3 7.4 10.7 96 0.3 SE 22 30 12 16 998.2 998.2 15.0
26/03:30pm 11.4 6.0 10.8 96 0.3 SE 30 37 16 20 998.2 998.2 14.0
26/03:00pm 11.7 9.6 11.1 96 0.3 SE 13 22 7 12 998.3 998.3 9.4
26/02:30pm 12.5 11.0 11.9 96 0.3 N 11 15 6 8 998.2 998.2 6.8
26/02:00pm 12.6 11.1 12.0 96 0.3 N 11 13 6 7 998.3 998.3 5.4
26/01:30pm 12.6 10.0 12.0 96 0.3 N 17 19 9 10 998.4 998.4 3.6
26/01:00pm 12.7 9.7 11.9 95 0.4 NNW 19 22 10 12 998.7 998.7 2.4
26/12:30pm 12.7 9.5 11.9 95 0.4 NNW 20 26 11 14 998.9 998.9 1.8
26/12:00pm 12.9 9.0 12.1 95 0.4 NNW 24 28 13 15 999.3 999.3 1.4
26/11:30am 13.0 9.1 12.2 95 0.4 NNW 24 28 13 15 999.6 999.6 1.2
26/11:00am 12.9 9.0 12.1 95 0.4 NNW 24 30 13 16 1000.2 1000.2 1.2
26/10:30am 13.0 8.7 12.2 95 0.4 NNW 26 32 14 17 1000.8 1000.8 1.0
26/10:00am 12.8 8.5 12.0 95 0.4 NNW 26 32 14 17 1001.0 1001.0 0.6
26/09:30am 12.9 8.2 12.1 95 0.4 NNW 28 32 15 17 1001.3 1001.3 0.2
26/09:00am 13.1 8.5 12.3 95 0.4 NW 28 32 15 17 1001.4 1001.4 7.2
26/08:30am 12.9 8.2 12.1 95 0.4 NNW 28 33 15 18 1001.5 1001.5 7.2
26/08:00am 12.8 7.7 12.0 95 0.4 NNW 30 35 16 19 1001.6 1001.6 6.6
26/07:30am 13.0 7.6 12.2 95 0.4 NNW 32 35 17 19 1001.7 1001.7 6.0
26/07:00am 12.9 7.8 12.0 94 0.5 NNW 30 33 16 18 1001.9 1001.9 5.2
26/06:30am 12.9 6.8 11.8 93 0.6 NNW 35 43 19 23 1001.9 1001.9 5.0
26/06:00am 12.9 6.9 12.0 94 0.5 NW 35 39 19 21 1001.9 1001.9 4.8
26/05:30am 12.8 6.7 11.9 94 0.5 NNW 35 43 19 23 1002.3 1002.3 4.4
26/05:00am 12.7 6.2 11.8 94 0.5 NNW 37 43 20 23 1002.5 1002.5 3.6
26/04:30am 12.7 6.6 11.8 94 0.5 NNW 35 41 19 22 1002.8 1002.8 2.8
26/04:00am 12.7 6.6 11.8 94 0.5 NNW 35 44 19 24 1003.1 1003.1 1.8
26/03:30am 12.7 6.2 11.8 94 0.5 NNW 37 44 20 24 1003.2 1003.2 1.2
26/03:00am 12.6 6.1 11.7 94 0.5 NNW 37 43 20 23 1003.6 1003.6 1.0
26/02:30am 12.7 6.2 11.6 93 0.6 NNW 37 43 20 23 1004.1 1004.1 0.6
26/02:00am 12.7 6.1 11.3 91 0.7 NW 37 44 20 24 1004.4 1004.4 0.0
26/01:30am 12.9 5.9 11.3 90 0.8 NNW 39 44 21 24 1004.6 1004.6 0.0
26/01:00am 13.5 6.8 10.9 84 1.4 NW 37 46 20 25 1004.8 1004.8 0.0
26/12:30am 13.6 6.9 11.0 84 1.4 NW 37 44 20 24 1005.1 1005.1 0.0
26/12:00am 13.4 6.2 10.4 82 1.6 NW 39 50 21 27 1005.6 1005.6 0.0
 
Date/Time
EST
Temp
°C
App
Temp
°C
Dew
Point
Rel
Hum
%
Delta-T
°C
Wind Press
QNH
hPa
Press
MSL
hPa
Rain
since 9 am
mm
Dir
 
Spd
km/h
Gust
km/h
Spd
kts
Gust
kts
25/11:30pm 13.8 6.6 10.6 81 1.7 NW 39 50 21 27 1006.0 1006.0 0.0
25/11:00pm 13.7 6.5 10.5 81 1.7 NW 39 52 21 28 1006.2 1006.2 0.0
25/10:30pm 13.7 6.9 10.5 81 1.7 NW 37 52 20 28 1006.7 1006.7 0.0
25/10:00pm 13.9 6.9 10.1 78 2.0 WNW 37 46 20 25 1006.9 1006.9 0.0
25/09:30pm 14.1 7.6 10.5 79 1.9 NW 35 50 19 27 1007.3 1007.3 0.0
25/09:00pm 14.5 7.1 9.9 74 2.4 WNW 39 56 21 30 1007.0 1007.0 0.0
25/08:30pm 14.9 7.7 10.5 75 2.3 WNW 39 52 21 28 1006.8 1006.8 0.0
25/08:00pm 15.0 9.1 11.2 78 2.0 NW 33 44 18 24 1006.8 1006.8 0.0
25/07:30pm 14.8 8.9 11.2 79 1.9 NW 33 50 18 27 1007.0 1007.0 0.0
25/07:00pm 14.8 9.2 11.6 81 1.7 NW 32 39 17 21 1007.1 1007.1 0.0
25/06:30pm 14.5 9.3 11.5 82 1.6 WNW 30 43 16 23 1007.3 1007.3 0.0
25/06:00pm 14.4 9.2 11.7 84 1.5 NW 30 39 16 21 1007.5 1007.5 0.0
25/05:30pm 14.3 11.3 11.8 85 1.3 NW 19 26 10 14 1007.4 1007.4 0.0
25/05:00pm 14.1 10.4 11.4 84 1.4 NW 22 32 12 17 1007.8 1007.8 0.0
25/04:30pm 14.1 10.3 11.3 83 1.5 NW 22 30 12 16 1007.9 1007.9 0.0
25/04:00pm 14.1 11.3 11.3 83 1.5 WNW 17 20 9 11 1008.2 1008.2 0.0
25/03:30pm 14.4 11.5 11.0 80 1.8 NW 17 24 9 13 1008.4 1008.4 0.0
25/03:00pm 13.7 12.1 10.3 80 1.8 WNW 9 15 5 8 1008.8 1008.8 0.0
25/02:30pm 13.8 12.1 10.0 78 2.0 W 9 13 5 7 1008.8 1008.8 0.0
25/02:00pm 13.2 10.6 9.5 78 1.9 W 13 17 7 9 1009.4 1009.4 0.0
25/01:30pm 13.3 10.4 9.5 78 1.9 W 15 20 8 11 1009.8 1009.8 0.0
25/01:00pm 13.7 10.4 9.6 76 2.1 W 17 20 9 11 1010.0 1010.0 0.0
25/12:30pm 13.1 10.5 9.4 78 1.9 W 13 17 7 9 1010.2 1010.2 0.0
25/12:00pm 12.3 10.3 8.8 79 1.7 W 9 15 5 8 1010.5 1010.5 0.0
25/11:30am 11.9 9.4 8.0 77 1.9 WNW 11 15 6 8 1011.4 1011.3 0.0
25/11:00am 12.1 10.3 8.0 76 2.0 W 7 13 4 7 1011.8 1011.7 0.0
25/10:30am 11.2 8.1 7.3 77 1.9 W 13 17 7 9 1012.5 1012.4 0.0
25/10:00am 10.8 7.2 6.9 77 1.8 W 15 20 8 11 1013.2 1013.1 0.0
25/09:30am 11.2 8.9 7.3 77 1.9 W 9 15 5 8 1013.3 1013.2 0.0
25/09:00am 10.0 7.9 6.5 79 1.6 W 7 11 4 6 1013.4 1013.3 0.0
25/08:30am 8.7 6.6 5.6 81 1.4 W 6 9 3 5 1013.6 1013.6 0.0
25/08:00am 8.4 6.6 5.3 81 1.4 SSE 4 6 2 3 1013.3 1013.2 0.0
25/07:30am 7.8 5.9 4.7 81 1.4 SE 4 4 2 2 1013.3 1013.2 0.0
25/07:00am 7.3 4.9 4.1 80 1.4 SE 6 7 3 4 1013.3 1013.2 0.0
25/06:30am 7.3 4.7 4.3 81 1.3 SSE 7 9 4 5 1013.5 1013.4 0.0
25/06:00am 7.1 4.4 3.7 79 1.4 S 7 9 4 5 1013.7 1013.7 0.0
25/05:30am 7.2 4.1 3.6 78 1.5 S 9 9 5 5 1014.2 1014.2 0.0
25/05:00am 7.0 3.9 3.4 78 1.5 SSW 9 11 5 6 1014.5 1014.5 0.0
25/04:30am 7.3 4.2 3.4 76 1.7 S 9 11 5 6 1014.3 1014.3 0.0
25/04:00am 7.2 4.1 3.4 77 1.6 SSE 9 13 5 7 1014.0 1014.0 0.0
25/03:30am 7.5 4.0 3.6 76 1.7 SSE 11 15 6 8 1014.0 1014.0 0.0
25/03:00am 7.2 4.1 3.4 77 1.6 SSE 9 13 5 7 1014.0 1014.0 0.0
25/02:30am 6.9 3.7 3.0 76 1.6 S 9 13 5 7 1014.6 1014.6 0.0
25/02:00am 7.1 3.9 3.0 75 1.7 S 9 13 5 7 1014.7 1014.7 0.0
25/01:30am 7.7 4.5 3.0 72 2.0 S 9 15 5 8 1014.8 1014.8 0.0
25/01:00am 8.1 4.1 3.0 70 2.2 SSE 13 17 7 9 1015.1 1015.1 0.0
25/12:30am 8.5 5.0 3.4 70 2.2 SSE 11 15 6 8 1015.1 1015.1 0.0
25/12:00am 8.5 5.1 3.9 73 2.0 SSE 11 13 6 7 1015.3 1015.3 0.0
 
Date/Time
EST
Temp
°C
App
Temp
°C
Dew
Point
Rel
Hum
%
Delta-T
°C
Wind Press
QNH
hPa
Press
MSL
hPa
Rain
since 9 am
mm
Dir
 
Spd
km/h
Gust
km/h
Spd
kts
Gust
kts
24/11:30pm 8.4 5.7 3.7 72 2.0 S 7 11 4 6 1015.5 1015.5 0.0
24/11:00pm 9.0 5.9 3.4 68 2.4 SSE 9 13 5 7 1015.6 1015.6 0.0
24/10:30pm 9.5 6.0 3.7 67 2.5 SSE 11 17 6 9 1015.7 1015.7 0.0
24/10:00pm 9.8 5.9 3.5 65 2.7 SSE 13 19 7 10 1015.6 1015.6 0.0
24/09:30pm 9.7 6.2 3.7 66 2.6 SSE 11 19 6 10 1015.8 1015.8 0.0
24/09:00pm 9.6 5.1 4.4 70 2.3 SSE 17 20 9 11 1015.7 1015.7 0.0
24/08:30pm 9.5 5.9 5.1 74 2.0 SSE 13 19 7 10 1015.5 1015.5 0.0
24/08:00pm 9.8 7.2 4.4 69 2.4 SSW 7 13 4 7 1015.4 1015.4 0.0
24/07:30pm 9.5 6.5 3.9 68 2.5 SW 9 15 5 8 1015.6 1015.6 0.0
24/07:00pm 9.7 6.4 4.3 69 2.4 SW 11 13 6 7 1015.2 1015.2 0.0
24/06:30pm 10.0 6.7 4.8 70 2.3 WSW 11 15 6 8 1015.1 1015.1 0.0
24/06:00pm 10.4 6.8 5.0 69 2.4 WSW 13 20 7 11 1014.9 1014.9 0.0
24/05:30pm 10.8 7.2 5.1 68 2.6 WSW 13 19 7 10 1014.7 1014.7 0.0
24/05:00pm 11.2 7.2 5.1 66 2.8 WSW 15 24 8 13 1014.3 1014.3 0.0
24/04:30pm 12.0 7.6 4.7 61 3.3 WSW 17 28 9 15 1014.1 1014.1 0.0

Other Formats:

Comma delimited format used in spreadsheet applications
http://www.bom.gov.au/fwo/IDT60801/IDT60801.95985.axf

JavaScript Object Notation format (JSON) in row-major order
http://www.bom.gov.au/fwo/IDT60801/IDT60801.95985.json